Time;durP1;ratioP1;P1;durP2;ratioP2;P2;SDS_P1;SDS_P2;PMS_P1;PMS_P2;Temp;Humidity;BMP_temperature;BMP_pressure;BME280_temperature;BME280_humidity;BME280_pressure;Samples;Min_cycle;Max_cycle;Signal;HPM_P1;HPM_P2
2022/07/25 00:02:12;;;;;;;14.35;10.98;;;;;;;19.69;84.79;101059.03;6158522;23;20013;-78
2022/07/25 00:04:37;;;;;;;13.23;10.82;;;;;;;19.65;84.89;101063.72;6158756;23;20001;-78
2022/07/25 00:07:03;;;;;;;15.20;11.85;;;;;;;19.58;84.66;101052.22;6157823;23;20009;-72
2022/07/25 00:09:28;;;;;;;15.18;11.80;;;;;;;19.57;84.58;101045.34;6158342;23;20016;-77
2022/07/25 00:11:53;;;;;;;17.50;11.75;;;;;;;19.59;84.41;101045.19;6158255;23;20006;-72
2022/07/25 00:14:19;;;;;;;13.38;11.13;;;;;;;19.52;84.11;101042.28;6158234;23;20380;-79
2022/07/25 00:16:44;;;;;;;14.60;11.82;;;;;;;19.47;84.31;101034.09;6157797;23;20012;-71
2022/07/25 00:19:09;;;;;;;15.77;11.70;;;;;;;19.42;84.39;101025.84;6158594;23;20017;-79
2022/07/25 00:21:35;;;;;;;13.43;10.88;;;;;;;19.45;84.96;101026.34;6158396;23;20001;-79
2022/07/25 00:24:00;;;;;;;17.45;11.45;;;;;;;19.40;84.67;101019.94;6158441;23;20473;-80
2022/07/25 00:26:25;;;;;;;14.13;11.02;;;;;;;19.42;85.17;101029.28;6158086;23;20037;-80
2022/07/25 00:28:51;;;;;;;13.57;10.65;;;;;;;19.43;85.51;101028.28;6158408;23;20088;-80
2022/07/25 00:31:16;;;;;;;14.65;10.80;;;;;;;19.28;85.70;101001.00;6158345;23;20033;-80
2022/07/25 00:33:41;;;;;;;14.73;11.68;;;;;;;19.38;86.03;101021.88;6132153;23;20029;-79
2022/07/25 00:36:07;;;;;;;14.95;11.90;;;;;;;19.32;85.78;101025.06;6158178;23;20060;-79
2022/07/25 00:38:33;;;;;;;15.90;12.07;;;;;;;19.30;85.53;101020.00;6157858;23;20100;-73
2022/07/25 00:40:58;;;;;;;14.73;11.85;;;;;;;19.24;85.78;101010.09;6157997;23;20033;-73
2022/07/25 00:43:23;;;;;;;14.30;11.32;;;;;;;19.24;86.00;101006.66;6158074;23;19997;-72
2022/07/25 00:45:49;;;;;;;13.95;11.30;;;;;;;19.23;85.69;101005.00;6157344;23;20006;-79
2022/07/25 00:48:14;;;;;;;15.05;11.60;;;;;;;19.22;86.08;101006.00;6153682;23;20021;-78
2022/07/25 00:50:39;;;;;;;13.73;11.50;;;;;;;19.21;85.89;101002.56;6156747;23;20005;-80
2022/07/25 00:53:05;;;;;;;16.70;12.20;;;;;;;19.17;86.22;100998.56;6156379;23;20309;-80
2022/07/25 00:55:31;;;;;;;14.98;11.93;;;;;;;19.14;86.34;101006.72;6156454;23;20056;-70
2022/07/25 00:57:56;;;;;;;15.98;12.70;;;;;;;19.12;86.07;100988.56;6156321;23;20037;-79
2022/07/25 01:00:22;;;;;;;16.05;12.82;;;;;;;19.10;86.15;100992.28;6156338;23;20009;-77
2022/07/25 01:02:47;;;;;;;14.40;12.18;;;;;;;19.12;85.61;100988.56;6156446;23;20029;-80
2022/07/25 01:05:12;;;;;;;16.25;13.30;;;;;;;19.09;85.75;100988.03;6156650;23;20551;-77
2022/07/25 01:07:38;;;;;;;17.90;13.27;;;;;;;19.03;85.95;100981.59;6156722;23;20013;-79
2022/07/25 01:10:05;;;;;;;15.73;13.50;;;;;;;18.98;86.09;100978.59;6156511;23;20002;-80
2022/07/25 01:12:30;;;;;;;17.40;13.65;;;;;;;18.91;86.27;100973.13;6156160;23;20001;-78
2022/07/25 01:14:56;;;;;;;18.42;14.30;;;;;;;18.86;86.35;100975.34;6156064;23;20012;-80
2022/07/25 01:17:21;;;;;;;18.92;14.15;;;;;;;18.77;86.74;100959.69;6130241;23;20012;-78
2022/07/25 01:19:47;;;;;;;19.13;14.80;;;;;;;18.76;86.60;100953.66;6129506;23;20406;-79
2022/07/25 01:22:12;;;;;;;18.10;14.35;;;;;;;18.80;86.38;100960.25;6156128;23;20427;-80
2022/07/25 01:24:38;;;;;;;17.08;15.13;;;;;;;18.68;86.54;100939.63;6156244;23;20089;-80
2022/07/25 01:27:04;;;;;;;19.58;14.50;;;;;;;18.79;86.41;100963.84;6156381;23;20077;-75
2022/07/25 01:29:29;;;;;;;17.98;14.35;;;;;;;18.75;86.36;100962.47;6156249;23;20001;-80
2022/07/25 01:31:55;;;;;;;20.10;15.15;;;;;;;18.77;86.46;100957.06;6156340;23;20076;-80
2022/07/25 01:34:20;;;;;;;19.02;14.63;;;;;;;18.75;86.39;100957.22;6156122;23;20028;-81
2022/07/25 01:36:45;;;;;;;18.98;15.50;;;;;;;18.74;86.22;100952.16;6155867;23;20424;-79
2022/07/25 01:39:10;;;;;;;17.73;14.70;;;;;;;18.73;86.50;100955.75;6156309;23;20001;-78
2022/07/25 01:41:36;;;;;;;19.88;15.10;;;;;;;18.71;86.04;100942.81;6156084;23;20001;-76
2022/07/25 01:44:02;;;;;;;16.65;14.65;;;;;;;18.69;86.08;100931.69;6155827;23;20053;-77
2022/07/25 01:46:27;;;;;;;18.73;14.90;;;;;;;18.76;85.89;100937.13;6155767;23;20028;-79
2022/07/25 01:48:52;;;;;;;17.17;14.82;;;;;;;18.76;86.19;100929.28;6155654;23;20044;-81
2022/07/25 01:51:18;;;;;;;18.50;15.27;;;;;;;18.77;86.19;100931.75;6155958;23;20016;-80
2022/07/25 01:53:43;;;;;;;19.17;15.07;;;;;;;18.74;86.03;100933.84;6155928;23;20002;-76
2022/07/25 01:56:08;;;;;;;18.80;15.20;;;;;;;18.62;86.20;100909.66;6156330;23;20009;-77
2022/07/25 01:58:34;;;;;;;19.80;14.57;;;;;;;18.70;86.19;100922.84;6155307;23;20063;-81
2022/07/25 02:00:59;;;;;;;19.48;15.55;;;;;;;18.70;86.40;100915.00;6155722;23;20005;-81
2022/07/25 02:03:30;;;;;;;20.73;15.52;;;;;;;18.72;87.03;100920.09;6155894;23;20033;-81
2022/07/25 02:06:02;;;;;;;18.50;15.05;;;;;;;18.73;86.49;100911.25;6155805;23;20021;-80
2022/07/25 02:08:29;;;;;;;19.45;15.25;;;;;;;18.66;86.73;100899.75;6155710;23;20454;-81
2022/07/25 02:10:55;;;;;;;19.17;14.65;;;;;;;18.72;86.69;100907.00;6155506;23;20076;-79
2022/07/25 02:13:21;;;;;;;16.27;14.15;;;;;;;18.71;86.34;100902.75;6155576;23;20056;-81
2022/07/25 02:15:46;;;;;;;17.88;13.45;;;;;;;18.75;86.52;100904.91;6155751;23;20029;-81
2022/07/25 02:18:12;;;;;;;17.10;14.15;;;;;;;18.77;86.78;100905.56;6155377;23;20009;-76
2022/07/25 02:20:37;;;;;;;16.45;13.82;;;;;;;18.76;86.51;100911.78;6155890;23;20005;-80
2022/07/25 02:23:03;;;;;;;18.08;14.70;;;;;;;18.75;86.68;100907.53;6155633;23;20001;-80
2022/07/25 02:25:29;;;;;;;19.63;14.82;;;;;;;18.67;86.64;100886.50;6155412;23;20039;-81
2022/07/25 02:27:54;;;;;;;17.08;13.48;;;;;;;18.67;86.46;100889.13;6155879;23;20001;-77
2022/07/25 02:30:19;;;;;;;16.52;13.95;;;;;;;18.72;86.73;100899.16;6155354;23;20269;-81
2022/07/25 02:32:45;;;;;;;19.90;14.65;;;;;;;18.58;86.44;100882.13;6155287;23;20132;-81
2022/07/25 02:35:10;;;;;;;16.55;13.70;;;;;;;18.70;86.64;100896.69;6155653;23;20100;-81
2022/07/25 02:37:35;;;;;;;17.33;13.75;;;;;;;18.64;86.61;100894.63;6155694;23;20005;-81
2022/07/25 02:40:01;;;;;;;15.30;12.60;;;;;;;18.63;86.79;100885.13;6155557;23;20500;-80
2022/07/25 02:42:26;;;;;;;17.75;13.10;;;;;;;18.60;86.65;100883.66;6155414;23;20033;-81
2022/07/25 02:44:51;;;;;;;19.48;13.23;;;;;;;18.55;86.52;100872.78;6155323;23;20089;-81
2022/07/25 02:47:17;;;;;;;18.00;13.95;;;;;;;18.48;86.58;100870.91;6155165;23;20328;-80
2022/07/25 02:49:42;;;;;;;16.35;13.18;;;;;;;18.52;86.63;100886.16;6155717;23;20368;-79
2022/07/25 02:52:08;;;;;;;18.55;13.70;;;;;;;18.45;86.95;100879.88;6155778;23;20002;-82
2022/07/25 02:54:33;;;;;;;17.08;13.18;;;;;;;18.46;86.89;100873.66;6155546;23;20419;-81
2022/07/25 02:56:58;;;;;;;16.92;13.45;;;;;;;18.40;86.95;100869.03;6155588;23;20080;-80
2022/07/25 02:59:24;;;;;;;20.23;14.07;;;;;;;18.24;86.73;100851.34;6155579;23;20002;-79
2022/07/25 03:01:49;;;;;;;16.55;13.82;;;;;;;18.35;87.03;100879.09;6155499;23;20064;-79
2022/07/25 03:04:15;;;;;;;15.98;13.88;;;;;;;18.33;87.17;100866.19;6155529;23;20420;-81
2022/07/25 03:06:40;;;;;;;14.85;12.65;;;;;;;18.35;87.26;100869.47;6155564;23;20482;-81
2022/07/25 03:09:05;;;;;;;16.73;13.45;;;;;;;18.35;87.30;100869.47;6154991;23;19998;-81
2022/07/25 03:11:30;;;;;;;14.95;13.00;;;;;;;18.33;87.24;100865.34;6155250;23;20002;-81
2022/07/25 03:13:56;;;;;;;17.35;13.35;;;;;;;18.32;87.38;100855.88;6155321;23;20002;-81
2022/07/25 03:16:22;;;;;;;17.58;13.07;;;;;;;18.33;87.04;100849.66;6154924;23;20336;-79
2022/07/25 03:18:47;;;;;;;15.23;12.70;;;;;;;18.34;86.83;100848.69;6155402;23;20006;-81
2022/07/25 03:21:13;;;;;;;17.95;13.07;;;;;;;18.28;87.53;100842.25;6155246;23;20458;-74
2022/07/25 03:23:39;;;;;;;14.95;12.70;;;;;;;18.04;87.49;100803.59;6155296;23;20007;-81
2022/07/25 03:26:04;;;;;;;18.92;13.27;;;;;;;18.23;88.24;100846.28;6154969;23;20005;-80
2022/07/25 03:28:30;;;;;;;17.23;13.07;;;;;;;18.20;87.17;100825.69;6155041;23;20014;-81
2022/07/25 03:30:55;;;;;;;15.80;13.25;;;;;;;18.20;87.61;100836.94;6154812;23;20009;-81
2022/07/25 03:33:20;;;;;;;16.83;12.88;;;;;;;18.25;87.69;100833.88;6154790;23;20020;-81
2022/07/25 03:35:46;;;;;;;15.80;12.90;;;;;;;18.30;87.47;100842.94;6154763;23;20002;-78
2022/07/25 03:38:11;;;;;;;15.10;12.98;;;;;;;18.25;87.65;100836.50;6155090;23;20013;-81
2022/07/25 03:40:36;;;;;;;17.25;13.23;;;;;;;18.28;87.73;100847.47;6155018;23;20006;-78
2022/07/25 03:43:02;;;;;;;17.25;13.13;;;;;;;18.28;87.85;100846.66;6155229;23;20041;-79
2022/07/25 03:45:27;;;;;;;14.52;12.73;;;;;;;18.23;87.20;100839.25;6155277;23;20006;-81
2022/07/25 03:47:53;;;;;;;17.92;13.05;;;;;;;18.25;87.80;100845.16;6154488;23;20104;-80
2022/07/25 03:50:18;;;;;;;16.42;12.55;;;;;;;18.26;87.83;100851.22;6154976;23;20002;-80
2022/07/25 03:52:43;;;;;;;16.65;13.20;;;;;;;18.26;86.67;100845.97;6128755;23;20006;-77
2022/07/25 03:55:10;;;;;;;16.35;12.32;;;;;;;18.24;87.63;100850.53;6155144;23;20001;-80
2022/07/25 03:57:36;;;;;;;15.15;11.80;;;;;;;18.24;87.63;100838.28;6154879;23;20028;-77
2022/07/25 04:00:03;;;;;;;16.10;12.38;;;;;;;18.27;87.89;100839.78;6155137;23;20367;-79
2022/07/25 04:02:29;;;;;;;16.23;12.25;;;;;;;18.27;87.01;100824.91;6154831;23;20088;-76
2022/07/25 04:04:54;;;;;;;14.57;11.95;;;;;;;18.29;87.79;100833.47;6154858;23;20040;-81
2022/07/25 04:07:19;;;;;;;14.25;10.55;;;;;;;18.48;87.08;100823.81;6154959;23;20092;-78
2022/07/25 04:09:45;;;;;;;11.52;8.60;;;;;;;18.68;86.04;100824.53;6154901;23;20429;-78
2022/07/25 04:12:10;;;;;;;12.68;9.90;;;;;;;18.87;85.54;100829.63;6155274;23;20084;-79
2022/07/25 04:14:36;;;;;;;16.70;11.55;;;;;;;18.94;84.57;100814.16;6154881;23;20064;-79
2022/07/25 04:17:01;;;;;;;14.52;10.25;;;;;;;19.05;84.07;100808.69;6154413;23;20001;-79
2022/07/25 04:19:26;;;;;;;14.27;11.27;;;;;;;19.13;83.17;100824.47;6154796;23;20339;-80
2022/07/25 04:21:52;;;;;;;16.77;11.95;;;;;;;19.12;82.51;100814.97;6156028;23;20006;-78
2022/07/25 04:24:17;;;;;;;19.15;12.20;;;;;;;18.87;83.42;100793.00;6156732;23;20021;-78
2022/07/25 04:26:42;;;;;;;19.30;12.65;;;;;;;18.94;83.53;100808.94;6157114;23;20009;-79
2022/07/25 04:29:07;;;;;;;14.05;11.52;;;;;;;18.97;83.67;100804.19;6156746;23;20036;-79
2022/07/25 04:31:33;;;;;;;14.90;11.57;;;;;;;19.02;83.72;100814.22;6156646;23;20084;-80
2022/07/25 04:33:58;;;;;;;13.80;11.60;;;;;;;18.93;82.33;100797.63;6156285;23;20001;-81
2022/07/25 04:36:25;;;;;;;15.23;11.32;;;;;;;19.19;82.77;100832.53;6156722;23;20348;-80
2022/07/25 04:38:51;;;;;;;13.90;10.85;;;;;;;19.24;80.84;100820.78;6156196;23;20060;-79
2022/07/25 04:41:16;;;;;;;13.40;10.43;;;;;;;19.13;82.15;100806.13;6156339;23;20028;-80
2022/07/25 04:43:42;;;;;;;14.55;10.50;;;;;;;19.32;80.33;100818.22;6156468;23;20041;-80
2022/07/25 04:46:07;;;;;;;13.10;10.45;;;;;;;19.32;81.05;100819.03;6156175;23;20002;-81
2022/07/25 04:48:32;;;;;;;14.35;9.82;;;;;;;19.48;79.96;100827.00;6155986;23;20013;-80
2022/07/25 04:50:58;;;;;;;12.95;9.80;;;;;;;19.67;77.73;100812.09;6129334;23;20013;-82
2022/07/25 04:53:23;;;;;;;13.07;9.18;;;;;;;19.80;78.76;100816.88;6156278;23;20097;-82
2022/07/25 04:55:49;;;;;;;14.75;9.73;;;;;;;19.83;76.04;100808.72;6156207;23;20001;-82
2022/07/25 04:58:14;;;;;;;13.45;9.93;;;;;;;19.84;78.03;100815.59;6156265;23;20060;-78
2022/07/25 05:00:40;;;;;;;16.98;10.48;;;;;;;19.81;77.34;100802.81;6156482;23;20006;-81
2022/07/25 05:03:05;;;;;;;15.50;9.13;;;;;;;19.93;76.55;100814.66;6156157;23;20080;-86
2022/07/25 05:05:30;;;;;;;13.02;8.98;;;;;;;19.95;76.00;100810.88;6156470;23;20084;-82
2022/07/25 05:07:57;;;;;;;14.35;8.95;;;;;;;19.98;74.79;100809.78;6156208;23;20041;-86
2022/07/25 05:10:27;;;;;;;12.98;9.23;;;;;;;20.06;75.84;100809.81;6156217;23;20010;-87
2022/07/25 05:12:53;;;;;;;11.50;8.77;;;;;;;20.18;74.48;100810.34;6156558;23;20040;-75
2022/07/25 05:15:18;;;;;;;13.18;8.43;;;;;;;20.19;73.77;100791.81;6156253;23;20001;-86
2022/07/25 05:17:44;;;;;;;14.05;9.05;;;;;;;20.27;72.69;100793.63;6156108;23;20009;-83
2022/07/25 05:20:11;;;;;;;13.90;8.98;;;;;;;20.48;72.72;100815.03;6156258;23;20002;-76
2022/07/25 05:22:36;;;;;;;17.52;9.02;;;;;;;20.57;71.56;100815.88;6156380;23;20016;-83
2022/07/25 05:25:01;;;;;;;13.02;9.68;;;;;;;20.73;70.76;100812.41;6156157;23;20293;-84
2022/07/25 05:27:27;;;;;;;11.90;8.63;;;;;;;20.74;69.98;100796.50;6156181;23;20013;-76
2022/07/25 05:29:53;;;;;;;13.85;9.32;;;;;;;20.94;70.34;100806.69;6156057;23;20433;-76
2022/07/25 05:32:18;;;;;;;11.85;8.95;;;;;;;21.04;69.29;100807.34;6156082;23;20005;-86
2022/07/25 05:34:43;;;;;;;14.95;9.32;;;;;;;21.03;69.07;100787.31;6156065;23;20008;-84
2022/07/25 05:37:09;;;;;;;13.35;9.43;;;;;;;21.07;69.45;100793.91;6155896;23;20029;-87
2022/07/25 05:39:36;;;;;;;12.93;9.43;;;;;;;21.24;68.33;100805.19;6155955;23;20013;-86
2022/07/25 05:42:01;;;;;;;13.70;8.73;;;;;;;21.30;68.14;100815.88;6156071;23;20001;-82
2022/07/25 05:44:27;;;;;;;14.73;10.60;;;;;;;21.37;67.63;100824.75;6155981;23;20072;-77
2022/07/25 05:46:52;;;;;;;12.95;9.30;;;;;;;21.40;68.13;100823.59;6156094;23;20002;-74
2022/07/25 05:49:17;;;;;;;18.13;10.07;;;;;;;21.53;67.57;100823.06;6155714;23;20337;-86
2022/07/25 05:51:42;;;;;;;14.95;9.55;;;;;;;21.61;67.16;100821.22;6155875;23;20005;-81
2022/07/25 05:54:08;;;;;;;16.02;10.43;;;;;;;21.54;66.97;100809.78;6154340;23;20048;-82
2022/07/25 05:56:33;;;;;;;18.25;10.57;;;;;;;21.61;67.54;100817.78;6105281;23;20002;-79
2022/07/25 05:58:58;;;;;;;14.00;10.38;;;;;;;21.50;66.79;100791.88;6155771;23;20336;-80
2022/07/25 06:01:24;;;;;;;14.85;9.52;;;;;;;21.63;66.79;100828.94;6154340;23;20084;-75
2022/07/25 06:03:49;;;;;;;12.90;10.15;;;;;;;21.61;67.47;100826.50;6156015;23;20021;-86
2022/07/25 06:06:14;;;;;;;15.57;10.02;;;;;;;21.60;66.86;100829.28;6155878;23;20430;-80
2022/07/25 06:08:40;;;;;;;13.23;9.98;;;;;;;21.60;66.76;100839.81;6155647;23;20498;-82
2022/07/25 06:11:07;;;;;;;15.50;10.43;;;;;;;21.60;67.65;100842.44;6155760;23;20010;-85
2022/07/25 06:13:33;;;;;;;15.13;11.02;;;;;;;21.56;67.09;100847.22;6155652;23;20009;-85
2022/07/25 06:15:59;;;;;;;15.70;10.30;;;;;;;21.54;67.69;100851.81;6156049;23;20009;-82
2022/07/25 06:18:24;;;;;;;13.77;10.70;;;;;;;21.50;67.98;100836.53;6155535;23;20496;-79
2022/07/25 06:20:50;;;;;;;11.60;9.55;;;;;;;21.47;68.39;100825.38;6153473;23;20002;-75
2022/07/25 06:23:16;;;;;;;14.98;10.05;;;;;;;21.68;67.95;100837.16;6155334;23;20044;-76
2022/07/25 06:25:41;;;;;;;16.60;10.95;;;;;;;21.58;66.86;100815.50;6156044;23;20008;-79
2022/07/25 06:28:07;;;;;;;15.15;10.45;;;;;;;21.40;66.76;100807.81;6155897;23;20423;-86
2022/07/25 06:30:33;;;;;;;19.27;10.15;;;;;;;21.29;66.98;100800.28;6155568;23;20073;-82
2022/07/25 06:32:58;;;;;;;17.90;9.88;;;;;;;21.44;66.67;100840.66;6155417;23;20040;-75
2022/07/25 06:35:24;;;;;;;14.75;9.98;;;;;;;21.36;67.60;100831.00;6129716;23;20007;-75
2022/07/25 06:37:49;;;;;;;12.27;9.32;;;;;;;21.34;67.62;100829.53;6155121;23;20316;-87
2022/07/25 06:40:15;;;;;;;16.20;9.45;;;;;;;21.50;66.95;100852.31;6155982;23;20048;-86
2022/07/25 06:42:42;;;;;;;15.35;9.82;;;;;;;21.53;65.89;100850.16;6155376;23;20325;-83
2022/07/25 06:45:09;;;;;;;14.80;9.52;;;;;;;21.62;66.69;100845.69;6155323;23;20040;-81
2022/07/25 06:47:35;;;;;;;14.63;9.50;;;;;;;21.72;65.52;100838.44;6155130;23;20008;-82
2022/07/25 06:50:01;;;;;;;12.48;8.50;;;;;;;21.85;65.99;100828.25;6155319;23;20014;-82
2022/07/25 06:52:26;;;;;;;14.05;8.60;;;;;;;22.02;65.12;100847.38;6155231;23;20420;-78
2022/07/25 06:54:52;;;;;;;14.82;8.40;;;;;;;21.99;64.66;100835.41;6155238;23;20364;-87
2022/07/25 06:57:17;;;;;;;12.38;7.72;;;;;;;22.01;64.81;100851.00;6155484;23;20032;-85
2022/07/25 06:59:43;;;;;;;12.93;7.55;;;;;;;21.96;65.10;100848.09;6155551;23;20339;-81
2022/07/25 07:02:09;;;;;;;10.35;7.63;;;;;;;21.84;65.74;100834.50;6155367;23;20072;-83
2022/07/25 07:04:34;;;;;;;12.50;7.82;;;;;;;21.83;65.75;100845.16;6155240;23;20025;-85
2022/07/25 07:06:59;;;;;;;14.30;6.97;;;;;;;21.73;65.69;100837.50;6155172;23;20183;-75
2022/07/25 07:09:25;;;;;;;15.52;6.85;;;;;;;21.71;66.53;100842.88;6155190;23;20006;-84
2022/07/25 07:11:50;;;;;;;9.90;6.82;;;;;;;21.85;66.53;100838.75;6155484;23;20010;-78
2022/07/25 07:14:15;;;;;;;10.93;6.10;;;;;;;21.96;65.14;100848.91;6155586;23;20093;-77
2022/07/25 07:16:41;;;;;;;13.38;6.72;;;;;;;21.92;65.13;100839.69;6155274;23;20002;-81
2022/07/25 07:19:09;;;;;;;11.15;6.25;;;;;;;21.96;65.88;100832.31;6154984;23;20013;-86
2022/07/25 07:21:35;;;;;;;9.98;5.55;;;;;;;22.23;65.45;100833.69;6154990;23;20001;-82
2022/07/25 07:24:00;;;;;;;9.70;5.15;;;;;;;22.64;64.23;100846.63;6155059;23;20052;-84
2022/07/25 07:26:25;;;;;;;8.25;4.65;;;;;;;22.80;63.31;100818.34;6128975;23;20012;-84
2022/07/25 07:28:53;;;;;;;7.18;4.43;;;;;;;23.51;60.60;100841.81;6155154;23;20013;-81
2022/07/25 07:31:18;;;;;;;7.40;3.97;;;;;;;23.68;58.70;100838.81;6155127;23;20005;-83
2022/07/25 07:33:44;;;;;;;11.25;4.07;;;;;;;23.61;59.85;100837.13;6155039;23;20125;-84
2022/07/25 07:36:09;;;;;;;7.60;3.53;;;;;;;23.57;59.74;100844.53;6129124;23;20002;-79
2022/07/25 07:38:35;;;;;;;6.93;3.20;;;;;;;23.54;60.39;100842.25;6155125;23;20455;-83
2022/07/25 07:41:00;;;;;;;10.43;3.25;;;;;;;23.51;61.37;100849.72;6154812;23;20486;-75
2022/07/25 07:43:25;;;;;;;7.35;3.63;;;;;;;23.44;60.64;100850.44;6155357;23;20017;-83
2022/07/25 07:45:51;;;;;;;6.68;2.90;;;;;;;23.23;60.79;100828.41;6155245;23;20392;-79
2022/07/25 07:48:16;;;;;;;7.82;3.13;;;;;;;23.24;60.73;100846.66;6154930;23;20430;-86
2022/07/25 07:50:41;;;;;;;6.78;2.80;;;;;;;23.20;61.46;100850.63;6154886;23;20029;-85
2022/07/25 07:53:07;;;;;;;6.45;3.20;;;;;;;23.07;62.39;100835.44;6155065;23;20021;-83
2022/07/25 07:55:44;;;;;;;7.38;2.75;;;;;;;23.09;61.84;100835.25;6155316;23;20323;-86
2022/07/25 07:58:17;;;;;;;9.60;2.65;;;;;;;23.40;62.09;100859.69;6156964;23;20009;-86
2022/07/25 08:00:45;;;;;;;7.55;2.90;;;;;;;23.65;60.53;100859.47;6157978;23;20006;-87
2022/07/25 08:03:12;;;;;;;7.85;2.53;;;;;;;24.03;60.68;100854.91;6156781;23;20428;-86
2022/07/25 08:05:40;;;;;;;7.55;2.10;;;;;;;24.35;59.77;100861.63;6156984;23;20481;-87
2022/07/25 08:08:07;;;;;;;6.25;2.20;;;;;;;24.50;60.04;100832.56;6156695;23;20066;-88
2022/07/25 08:10:35;;;;;;;4.93;1.60;;;;;;;24.81;58.65;100867.41;6157216;23;20092;-88
2022/07/25 08:13:22;;;;;;;5.80;1.73;;;;;;;24.71;58.60;100858.97;6154850;23;20010;-86
2022/07/25 08:15:53;;;;;;;4.00;1.75;;;;;;;24.77;60.78;100860.84;6156204;23;20340;-81
2022/07/25 08:18:19;;;;;;;6.60;2.15;;;;;;;24.77;58.95;100852.09;6156519;23;20016;-87
2022/07/25 08:20:45;;;;;;;9.35;2.08;;;;;;;24.76;58.75;100863.66;6156934;23;20012;-79
2022/07/25 08:23:11;;;;;;;5.38;1.80;;;;;;;24.65;58.59;100864.16;6157042;23;20002;-89
2022/07/25 08:25:37;;;;;;;7.45;1.70;;;;;;;24.55;59.89;100861.84;6157523;23;20301;-82
2022/07/25 08:28:05;;;;;;;4.97;1.45;;;;;;;24.43;60.82;100864.16;6158657;23;20013;-88
2022/07/25 08:30:30;;;;;;;9.07;1.92;;;;;;;24.29;60.40;100857.88;6157055;23;20033;-88
2022/07/25 08:33:02;;;;;;;5.65;1.45;;;;;;;24.21;60.54;100860.63;6156709;23;20052;-85
2022/07/25 08:35:29;;;;;;;5.72;1.92;;;;;;;24.21;61.77;100860.63;6156585;23;20001;-87
2022/07/25 08:37:55;;;;;;;3.08;1.40;;;;;;;24.14;61.69;100853.63;6156404;23;20013;-87
2022/07/25 08:40:22;;;;;;;5.30;1.60;;;;;;;24.34;62.92;100861.81;6156846;23;20155;-87
2022/07/25 08:42:48;;;;;;;3.28;1.38;;;;;;;24.52;59.91;100860.41;6156784;23;20077;-79
2022/07/25 08:45:16;;;;;;;5.03;1.70;;;;;;;24.68;59.73;100867.28;6156607;23;20018;-87
2022/07/25 08:47:42;;;;;;;5.22;1.50;;;;;;;24.93;58.53;100862.41;6156344;23;20092;-85
2022/07/25 08:50:11;;;;;;;6.18;1.65;;;;;;;25.10;57.51;100868.28;6157219;23;20056;-86
2022/07/25 08:52:37;;;;;;;4.40;1.70;;;;;;;25.45;56.12;100867.34;6158406;23;20006;-87
2022/07/25 08:55:09;;;;;;;5.68;1.40;;;;;;;25.43;57.55;100868.53;6156332;23;20084;-86
2022/07/25 08:57:36;;;;;;;6.05;1.50;;;;;;;25.26;57.22;100870.66;6156129;23;20023;-82
2022/07/25 09:00:05;;;;;;;5.65;1.60;;;;;;;24.79;56.94;100861.50;6156532;23;20013;-85
2022/07/25 09:02:30;;;;;;;5.78;1.70;;;;;;;24.58;58.97;100877.28;6156625;23;20013;-82
2022/07/25 09:04:58;;;;;;;8.50;1.65;;;;;;;24.32;58.47;100867.28;6156218;23;20008;-83
2022/07/25 09:07:39;;;;;;;6.60;1.33;;;;;;;24.27;58.78;100882.81;6156164;23;20013;-87
2022/07/25 09:10:17;;;;;;;3.38;1.48;;;;;;;24.39;58.63;100880.56;6156545;23;20005;-87
2022/07/25 09:13:03;;;;;;;4.65;1.52;;;;;;;24.71;58.61;100874.81;6156128;23;20009;-84
2022/07/25 09:15:34;;;;;;;4.85;1.60;;;;;;;25.04;57.81;100866.41;6156267;23;20033;-81
2022/07/25 09:18:00;;;;;;;;;;;;;;;25.43;56.83;100869.34;6156698;23;20006;-83
2022/07/25 09:20:39;;;;;;;5.43;1.77;;;;;;;25.53;55.56;100878.78;6155911;23;20192;-80
2022/07/25 09:23:05;;;;;;;5.05;2.05;;;;;;;25.56;55.38;100878.38;6156020;23;20428;-77
2022/07/25 09:25:30;;;;;;;6.15;1.95;;;;;;;25.57;54.36;100886.16;6156209;23;20012;-80
2022/07/25 09:28:15;;;;;;;8.60;2.13;;;;;;;25.63;55.78;100863.38;6155907;23;20487;-83
2022/07/25 09:30:53;;;;;;;5.10;1.80;;;;;;;25.98;55.44;100891.50;6153827;23;20386;-82
2022/07/25 09:33:19;;;;;;;7.00;2.45;;;;;;;26.11;53.33;100896.03;6156067;23;20439;-79
2022/07/25 09:35:45;;;;;;;5.47;2.30;;;;;;;25.88;53.93;100877.81;6156167;23;20012;-81
2022/07/25 09:38:13;;;;;;;6.80;2.45;;;;;;;25.76;55.06;100905.00;6156165;23;20366;-81
2022/07/25 09:40:39;;;;;;;6.30;2.28;;;;;;;25.56;54.16;100897.72;6155635;23;20005;-81
2022/07/25 09:43:05;;;;;;;5.55;2.63;;;;;;;25.38;55.08;100908.78;6156270;23;20006;-81
2022/07/25 09:45:31;;;;;;;7.15;2.33;;;;;;;25.27;54.79;100905.81;6155980;23;20420;-84
2022/07/25 09:47:59;;;;;;;7.03;2.65;;;;;;;25.17;55.25;100893.78;6155956;23;20020;-79
2022/07/25 09:50:27;;;;;;;6.53;2.22;;;;;;;25.15;55.66;100903.69;6156009;23;20010;-82
2022/07/25 09:52:56;;;;;;;8.02;2.08;;;;;;;25.22;55.84;100911.69;6155807;23;20415;-83
2022/07/25 09:55:22;;;;;;;6.78;2.65;;;;;;;25.36;55.19;100889.63;6155599;23;20013;-81
2022/07/25 09:57:48;;;;;;;6.95;2.50;;;;;;;25.72;55.52;100901.94;6155873;23;20010;-81
2022/07/25 10:00:20;;;;;;;7.95;2.65;;;;;;;25.97;53.87;100915.53;6155870;23;20002;-82
2022/07/25 10:02:47;;;;;;;6.80;2.47;;;;;;;26.00;55.23;100915.13;6156392;23;20377;-76
2022/07/25 10:05:15;;;;;;;6.07;2.35;;;;;;;25.80;53.53;100914.19;6156427;23;20006;-82
2022/07/25 10:07:47;;;;;;;6.78;2.30;;;;;;;25.81;55.11;100902.59;6155755;23;20009;-82
2022/07/25 10:10:24;;;;;;;7.10;2.47;;;;;;;25.77;55.50;100907.47;6155901;23;20012;-81
2022/07/25 10:13:00;;;;;;;6.70;2.60;;;;;;;25.91;54.14;100919.75;6155604;23;20080;-81
2022/07/25 10:15:52;;;;;;;8.23;2.58;;;;;;;26.20;54.87;100909.94;6155689;23;20432;-82
2022/07/25 10:18:26;;;;;;;6.85;2.15;;;;;;;26.47;53.96;100921.47;6155992;23;20005;-80
2022/07/25 10:20:55;;;;;;;6.82;2.53;;;;;;;26.52;51.35;100914.56;6155706;23;20084;-82
2022/07/25 10:23:22;;;;;;;6.32;2.33;;;;;;;26.55;52.68;100908.88;6155313;23;20032;-82
2022/07/25 10:26:02;;;;;;;6.85;2.13;;;;;;;26.73;52.55;100907.47;6155581;23;20462;-81
2022/07/25 10:28:36;;;;;;;9.05;2.20;;;;;;;26.75;51.03;100910.75;6155452;23;20005;-79
2022/07/25 10:31:01;;;;;;;7.25;2.53;;;;;;;26.72;52.06;100913.78;6155188;23;20026;-77
2022/07/25 10:33:27;;;;;;;6.13;2.25;;;;;;;26.52;50.34;100882.78;6155239;23;19997;-80
2022/07/25 10:35:52;;;;;;;6.38;2.10;;;;;;;26.74;50.03;100922.34;6155083;23;20013;-82
2022/07/25 10:38:23;;;;;;;4.80;2.42;;;;;;;26.64;50.12;100914.78;6155711;23;20010;-83
2022/07/25 10:40:49;;;;;;;4.53;2.00;;;;;;;26.40;49.66;100889.66;6155725;23;20076;-82
2022/07/25 10:43:21;;;;;;;6.05;1.98;;;;;;;26.62;49.31;100927.41;6155339;23;20036;-82
2022/07/25 10:45:52;;;;;;;6.45;1.83;;;;;;;26.65;49.38;100920.94;6155412;23;20011;-82
2022/07/25 10:48:27;;;;;;;6.43;2.13;;;;;;;26.70;49.17;100921.13;6155521;23;20013;-82
2022/07/25 10:50:56;;;;;;;5.40;2.15;;;;;;;26.80;49.43;100926.84;6154954;23;20001;-76
2022/07/25 10:53:31;;;;;;;5.70;2.30;;;;;;;27.06;47.82;100923.47;6155568;23;20052;-82
2022/07/25 10:56:01;;;;;;;6.88;2.58;;;;;;;27.27;47.63;100931.25;6155511;23;20015;-82
2022/07/25 10:58:39;;;;;;;4.65;2.40;;;;;;;27.29;46.70;100944.28;6129480;23;20012;-80
2022/07/25 11:01:05;;;;;;;8.73;2.53;;;;;;;27.25;46.74;100943.88;6155066;23;20002;-81
2022/07/25 11:03:32;;;;;;;6.50;2.38;;;;;;;27.13;46.12;100948.13;6155487;23;20060;-80
2022/07/25 11:05:57;;;;;;;6.93;2.50;;;;;;;27.07;46.96;100951.63;6155194;23;20005;-81
2022/07/25 11:08:33;;;;;;;6.32;2.53;;;;;;;27.08;48.51;100954.06;6155138;23;20005;-81
2022/07/25 11:10:58;;;;;;;5.40;2.85;;;;;;;27.02;48.84;100954.84;6155016;23;20052;-81
2022/07/25 11:13:24;;;;;;;5.85;2.58;;;;;;;26.98;47.13;100956.25;6155377;23;20002;-78
2022/07/25 11:15:50;;;;;;;5.40;2.55;;;;;;;26.79;48.35;100972.91;6155269;23;20379;-76